Time;durP1;ratioP1;P1;durP2;ratioP2;P2;SDS_P1;SDS_P2;PMS_P1;PMS_P2;Temp;Humidity;BMP_temperature;BMP_pressure;BME280_temperature;BME280_humidity;BME280_pressure;Samples;Min_cycle;Max_cycle;Signal;HPM_P1;HPM_P2
2023/08/26 00:01:35;;;;;;;15.18;11.00;;;;;;;27.17;53.92;99224.94;5011572;28;20554;-84
2023/08/26 00:04:01;;;;;;;17.90;10.07;;;;;;;26.62;54.68;99205.59;5034619;28;20053;-84
2023/08/26 00:06:26;;;;;;;11.82;10.73;;;;;;;25.97;55.38;99226.53;5013561;28;20025;-84
2023/08/26 00:08:52;;;;;;;13.85;10.00;;;;;;;25.16;57.75;99221.78;5031447;28;20127;-83
2023/08/26 00:11:18;;;;;;;18.00;10.85;;;;;;;25.21;57.53;99229.03;5011750;28;20029;-84
2023/08/26 00:13:43;;;;;;;12.07;10.02;;;;;;;25.47;57.45;99235.03;5014085;28;20030;-84
2023/08/26 00:16:09;;;;;;;12.27;9.68;;;;;;;25.74;56.90;99220.50;5033109;28;20103;-83
2023/08/26 00:18:34;;;;;;;15.95;10.13;;;;;;;25.58;56.74;99204.13;5034283;28;20029;-83
2023/08/26 00:21:00;;;;;;;17.10;9.52;;;;;;;25.63;57.17;99215.03;5018066;28;20037;-84
2023/08/26 00:23:26;;;;;;;23.10;10.32;;;;;;;25.90;56.45;99196.00;5006941;28;20083;-84
2023/08/26 00:25:51;;;;;;;14.23;9.70;;;;;;;26.06;56.14;99201.72;5029251;28;20492;-83
2023/08/26 00:28:17;;;;;;;14.10;9.38;;;;;;;26.15;55.79;99194.56;5026641;28;20025;-82
2023/08/26 00:30:43;;;;;;;12.98;9.10;;;;;;;26.40;55.43;99211.09;5020698;28;20034;-82
2023/08/26 00:33:09;;;;;;;13.15;8.90;;;;;;;26.28;54.88;99197.50;5009054;28;20025;-82
2023/08/26 00:35:37;;;;;;;14.05;9.32;;;;;;;26.57;54.37;99216.81;5032734;28;20018;-82
2023/08/26 00:38:03;;;;;;;13.10;9.10;;;;;;;26.61;54.13;99200.31;5032697;28;20473;-82
2023/08/26 00:40:30;;;;;;;12.30;9.52;;;;;;;26.66;53.90;99208.34;5024838;28;20050;-82
2023/08/26 00:42:56;;;;;;;15.20;9.27;;;;;;;26.81;53.52;99219.44;5015014;28;20049;-81
2023/08/26 00:45:22;;;;;;;11.18;9.90;;;;;;;26.68;53.58;99225.13;5012929;28;20033;-82
2023/08/26 00:47:47;;;;;;;13.57;8.88;;;;;;;25.91;55.33;99194.75;5013129;28;20022;-81
2023/08/26 00:50:13;;;;;;;13.82;9.65;;;;;;;25.80;56.42;99226.50;5033324;28;20484;-82
2023/08/26 00:52:39;;;;;;;16.85;10.65;;;;;;;25.78;56.53;99220.41;5033587;28;20032;-82
2023/08/26 00:55:06;;;;;;;13.50;9.55;;;;;;;26.20;55.41;99220.63;5011673;28;20026;-82
2023/08/26 00:57:32;;;;;;;12.95;8.65;;;;;;;26.13;54.83;99209.31;5012678;28;20455;-82
2023/08/26 00:59:57;;;;;;;12.98;9.32;;;;;;;26.29;54.81;99213.44;5014928;28;20084;-82
2023/08/26 01:02:23;;;;;;;13.70;9.38;;;;;;;26.43;53.88;99215.13;5033454;28;20037;-82
2023/08/26 01:04:49;;;;;;;14.65;9.15;;;;;;;26.50;53.27;99206.34;5007464;28;20118;-82
2023/08/26 01:07:14;;;;;;;14.20;9.88;;;;;;;26.42;53.54;99214.31;5025569;28;20138;-81
2023/08/26 01:09:40;;;;;;;15.57;9.80;;;;;;;26.35;53.40;99197.31;5031972;28;20053;-81
2023/08/26 01:12:28;;;;;;;16.85;9.68;;;;;;;26.48;53.38;99218.25;5024167;28;20029;-82
2023/08/26 01:15:05;;;;;;;11.18;9.60;;;;;;;26.31;53.83;99216.69;5007166;28;20112;-82
2023/08/26 01:17:31;;;;;;;14.80;9.35;;;;;;;26.27;53.78;99210.22;5033216;28;20025;-81
2023/08/26 01:19:59;;;;;;;10.70;9.52;;;;;;;25.46;56.42;99213.34;5014585;28;20119;-82
2023/08/26 01:22:28;;;;;;;18.70;10.68;;;;;;;25.13;57.76;99204.69;4997152;28;20026;-81
2023/08/26 01:24:55;;;;;;;14.55;10.32;;;;;;;25.06;57.50;99209.31;5009663;28;20080;-81
2023/08/26 01:27:20;;;;;;;17.30;10.20;;;;;;;24.77;58.62;99206.25;5032948;28;20045;-82
2023/08/26 01:29:46;;;;;;;15.13;9.38;;;;;;;24.90;58.03;99215.75;5012918;28;20068;-82
2023/08/26 01:32:33;;;;;;;20.30;11.07;;;;;;;24.59;58.71;99212.28;5032957;28;20048;-82
2023/08/26 01:35:03;;;;;;;16.70;10.98;;;;;;;24.34;59.28;99205.81;5031933;28;20029;-82
2023/08/26 01:37:28;;;;;;;17.30;11.20;;;;;;;24.03;59.50;99208.78;5016865;28;20033;-82
2023/08/26 01:39:58;;;;;;;13.77;10.93;;;;;;;23.50;60.66;99188.38;5032488;28;20096;-82
2023/08/26 01:42:25;;;;;;;15.25;10.35;;;;;;;23.31;61.63;99201.31;5025957;28;20145;-82
2023/08/26 01:44:51;;;;;;;14.88;10.98;;;;;;;23.56;60.73;99200.94;5031303;28;20025;-82
2023/08/26 01:47:17;;;;;;;21.13;11.02;;;;;;;23.45;60.88;99206.00;5011656;28;20542;-82
2023/08/26 01:49:45;;;;;;;16.23;10.77;;;;;;;23.32;61.21;99220.03;5012089;28;20018;-82
2023/08/26 01:52:11;;;;;;;13.35;11.23;;;;;;;23.13;61.39;99208.03;5031728;28;20488;-82
2023/08/26 01:54:37;;;;;;;13.52;10.65;;;;;;;23.60;59.76;99192.34;5006010;28;20101;-81
2023/08/26 01:57:02;;;;;;;22.30;12.63;;;;;;;23.78;58.44;99190.00;5030905;28;20022;-82
2023/08/26 01:59:28;;;;;;;16.40;10.77;;;;;;;23.55;59.14;99173.66;5032076;28;20105;-83
2023/08/26 02:01:53;;;;;;;14.00;11.70;;;;;;;23.24;60.28;99202.19;5029769;28;20037;-83
2023/08/26 02:04:19;;;;;;;22.52;10.98;;;;;;;23.45;60.21;99206.00;5017382;28;20064;-82
2023/08/26 02:06:45;;;;;;;12.90;9.75;;;;;;;23.56;60.01;99198.09;5014359;28;20021;-82
2023/08/26 02:09:11;;;;;;;13.15;10.80;;;;;;;23.49;59.79;99199.00;5032202;28;20021;-82
2023/08/26 02:11:36;;;;;;;14.88;11.05;;;;;;;23.45;60.37;99200.28;5030944;28;20087;-82
2023/08/26 02:14:03;;;;;;;15.82;10.82;;;;;;;23.41;60.31;99206.88;5025590;28;20029;-82
2023/08/26 02:16:28;;;;;;;20.38;11.50;;;;;;;23.55;59.62;99199.34;5032144;28;20029;-82
2023/08/26 02:18:54;;;;;;;16.17;11.18;;;;;;;23.75;58.79;99213.69;5014178;28;20025;-82
2023/08/26 02:21:19;;;;;;;14.32;10.45;;;;;;;23.58;59.58;99214.78;5014311;28;20026;-83
2023/08/26 02:23:45;;;;;;;15.68;10.38;;;;;;;23.09;61.46;99210.13;5030779;28;20029;-83
2023/08/26 02:26:10;;;;;;;14.65;10.98;;;;;;;23.19;61.35;99199.81;5008717;28;20036;-83
2023/08/26 02:28:36;;;;;;;17.95;9.93;;;;;;;23.26;61.30;99199.72;5029068;28;20029;-83
2023/08/26 02:31:04;;;;;;;12.70;10.25;;;;;;;23.50;60.76;99196.94;5030543;28;20022;-82
2023/08/26 02:33:30;;;;;;;12.63;10.95;;;;;;;23.76;60.20;99201.03;5025215;28;20025;-83
2023/08/26 02:35:56;;;;;;;15.02;9.90;;;;;;;23.87;59.66;99183.72;5013208;28;20033;-83
2023/08/26 02:38:21;;;;;;;20.05;10.80;;;;;;;23.81;59.66;99186.25;5031728;28;20079;-82
2023/08/26 02:57:50;;;;;;;17.85;12.40;;;;;;;22.42;65.33;99205.56;5150123;27;20117;-72
2023/08/26 03:00:16;;;;;;;17.35;11.77;;;;;;;22.35;66.38;99208.50;5149222;27;20035;-72
2023/08/26 03:02:42;;;;;;;16.55;13.50;;;;;;;22.00;68.20;99203.53;5131630;27;20450;-72
2023/08/26 03:05:07;;;;;;;22.30;14.38;;;;;;;21.85;69.03;99202.03;5137431;27;20055;-72
2023/08/26 03:07:33;;;;;;;21.17;12.82;;;;;;;21.95;68.98;99203.97;5142739;27;20061;-72
2023/08/26 03:09:58;;;;;;;19.17;13.50;;;;;;;22.02;69.12;99205.94;5110702;27;20028;-74
2023/08/26 03:12:24;;;;;;;21.33;13.68;;;;;;;22.08;69.08;99206.28;5129072;28;20027;-73
2023/08/26 03:14:52;;;;;;;17.08;12.88;;;;;;;22.12;69.59;99204.25;5133769;27;20038;-73
2023/08/26 03:17:18;;;;;;;16.00;13.15;;;;;;;22.34;69.01;99206.88;5149581;27;20048;-74
2023/08/26 03:19:43;;;;;;;24.98;13.48;;;;;;;22.52;68.24;99216.06;5149549;27;20022;-73
2023/08/26 03:22:09;;;;;;;17.38;13.50;;;;;;;22.35;69.15;99223.53;5133067;27;20066;-73
2023/08/26 03:24:36;;;;;;;31.88;14.38;;;;;;;22.24;69.71;99212.25;5130998;27;20027;-73
2023/08/26 03:27:01;;;;;;;20.38;14.32;;;;;;;22.16;70.07;99230.63;5147839;27;20039;-74
2023/08/26 03:29:27;;;;;;;21.27;15.15;;;;;;;21.77;71.68;99224.03;5149322;27;20063;-74
2023/08/26 03:31:52;;;;;;;26.85;15.60;;;;;;;21.84;71.56;99231.69;5149457;27;20019;-74
2023/08/26 03:34:18;;;;;;;21.30;15.25;;;;;;;21.86;71.35;99224.38;5133106;27;20062;-74
2023/08/26 03:36:43;;;;;;;31.25;16.42;;;;;;;22.04;70.59;99236.84;5113448;28;20027;-74
2023/08/26 03:39:09;;;;;;;20.80;14.82;;;;;;;21.87;71.13;99239.44;5128030;28;20065;-74
2023/08/26 03:41:34;;;;;;;37.20;15.32;;;;;;;21.92;71.17;99235.34;5109328;27;20024;-74
2023/08/26 03:43:59;;;;;;;31.23;16.30;;;;;;;21.93;71.22;99246.28;5126967;28;20031;-74
2023/08/26 03:46:26;;;;;;;23.27;15.80;;;;;;;21.82;71.81;99234.16;5122355;27;20433;-74
2023/08/26 03:48:52;;;;;;;26.95;15.07;;;;;;;21.85;71.38;99237.00;5146918;27;20462;-74
2023/08/26 03:51:17;;;;;;;16.63;14.88;;;;;;;21.86;71.53;99243.50;5128840;27;20053;-74
2023/08/26 03:53:43;;;;;;;21.95;15.90;;;;;;;21.92;70.96;99244.66;5129105;27;20084;-74
2023/08/26 03:56:09;;;;;;;24.23;15.45;;;;;;;21.93;70.58;99236.94;5135245;27;20423;-74
2023/08/26 03:58:34;;;;;;;19.23;14.27;;;;;;;22.02;69.96;99240.09;5114693;28;20031;-74
2023/08/26 04:01:01;;;;;;;24.48;16.88;;;;;;;21.92;70.00;99246.72;5130650;27;20585;-74
2023/08/26 04:03:27;;;;;;;30.42;15.57;;;;;;;22.09;69.38;99250.66;5116603;27;20031;-74
2023/08/26 04:06:04;;;;;;;24.00;16.00;;;;;;;21.88;69.41;99249.59;5116207;27;20388;-74
2023/08/26 04:08:31;;;;;;;26.52;15.70;;;;;;;21.84;69.33;99251.63;5116351;27;20027;-74
2023/08/26 04:10:57;;;;;;;27.60;16.83;;;;;;;21.69;69.90;99256.63;5108939;28;20083;-74
2023/08/26 04:13:28;;;;;;;33.35;15.18;;;;;;;21.89;69.79;99248.34;5114197;27;20028;-74
2023/08/26 04:15:58;;;;;;;35.63;14.98;;;;;;;22.01;69.33;99252.72;5095410;28;20019;-74
2023/08/26 04:18:24;;;;;;;23.55;15.57;;;;;;;21.95;69.44;99258.06;5133119;27;20031;-74
2023/08/26 04:20:50;;;;;;;21.88;14.35;;;;;;;21.94;69.32;99259.28;5134096;27;20030;-74
2023/08/26 04:23:16;;;;;;;30.45;14.73;;;;;;;22.21;68.41;99258.69;5134582;27;20031;-74
2023/08/26 04:25:43;;;;;;;21.13;13.32;;;;;;;22.21;67.79;99258.69;5115870;27;20060;-74
2023/08/26 04:28:09;;;;;;;25.35;15.65;;;;;;;22.15;68.13;99266.88;5132588;27;20150;-74
2023/08/26 04:30:36;;;;;;;24.38;13.77;;;;;;;22.04;68.34;99271.00;5113770;28;20032;-74
2023/08/26 04:33:02;;;;;;;25.88;14.35;;;;;;;22.10;68.68;99264.44;5115551;27;20488;-74
2023/08/26 04:35:28;;;;;;;22.45;14.63;;;;;;;22.26;67.92;99261.06;5113708;28;20479;-74
2023/08/26 04:37:53;;;;;;;21.10;14.82;;;;;;;22.39;67.34;99269.09;5117588;27;20027;-74
2023/08/26 04:40:19;;;;;;;25.48;15.85;;;;;;;22.45;67.21;99267.44;5115511;27;20035;-74
2023/08/26 04:42:45;;;;;;;37.75;14.95;;;;;;;22.57;66.96;99274.66;5115736;27;20030;-74
2023/08/26 04:45:14;;;;;;;27.63;13.95;;;;;;;22.76;66.11;99281.78;5115554;27;20030;-74
2023/08/26 04:47:40;;;;;;;27.92;14.82;;;;;;;22.93;66.09;99277.13;5111857;28;20035;-74
2023/08/26 04:50:06;;;;;;;21.80;14.38;;;;;;;23.19;65.23;99280.47;5114412;27;20026;-74
2023/08/26 04:52:32;;;;;;;30.40;14.32;;;;;;;23.42;64.41;99285.53;5133836;27;20490;-74
2023/08/26 04:54:58;;;;;;;21.02;12.90;;;;;;;23.34;65.14;99288.88;5133932;27;20030;-74
2023/08/26 04:57:23;;;;;;;24.27;13.98;;;;;;;23.03;66.38;99277.44;5114384;27;20051;-74
2023/08/26 04:59:48;;;;;;;24.25;13.55;;;;;;;23.24;66.57;99282.88;5128584;27;20055;-74
2023/08/26 05:02:14;;;;;;;23.38;13.40;;;;;;;23.27;66.23;99279.19;5119489;27;20032;-74
2023/08/26 05:04:39;;;;;;;24.50;15.07;;;;;;;23.27;66.31;99281.22;5133744;27;20039;-74
2023/08/26 05:07:05;;;;;;;25.55;13.07;;;;;;;23.68;65.50;99276.59;5115110;27;20397;-74
2023/08/26 05:09:30;;;;;;;23.45;12.85;;;;;;;23.64;65.53;99276.66;5115296;27;20454;-74
2023/08/26 05:11:57;;;;;;;21.88;13.95;;;;;;;23.38;66.08;99281.09;5115066;27;20039;-74
2023/08/26 05:14:25;;;;;;;18.08;13.00;;;;;;;23.39;66.05;99277.00;5132256;27;20034;-74
2023/08/26 05:16:51;;;;;;;19.05;14.25;;;;;;;23.56;65.38;99278.00;5133397;27;20031;-74
2023/08/26 05:19:16;;;;;;;27.08;17.48;;;;;;;23.65;65.05;99275.44;5116595;27;20024;-74
2023/08/26 05:21:42;;;;;;;19.13;13.20;;;;;;;23.66;63.68;99279.09;5116233;27;20031;-74
2023/08/26 05:24:08;;;;;;;20.15;11.90;;;;;;;23.87;63.84;99282.88;5121447;27;20043;-74
2023/08/26 05:26:33;;;;;;;20.17;13.65;;;;;;;23.92;63.35;99285.22;5123520;27;20027;-74
2023/08/26 05:28:59;;;;;;;31.73;14.90;;;;;;;23.98;63.19;99280.66;5115641;27;20114;-74
2023/08/26 05:31:25;;;;;;;71.85;18.15;;;;;;;24.01;63.23;99270.41;5131233;27;20031;-75
2023/08/26 05:33:50;;;;;;;20.75;15.45;;;;;;;23.98;63.50;99267.16;5114745;27;20027;-74
2023/08/26 05:36:16;;;;;;;26.90;13.93;;;;;;;23.82;63.95;99282.09;5114416;27;20027;-74
2023/08/26 05:38:41;;;;;;;26.75;13.95;;;;;;;23.92;63.75;99270.94;5131112;27;20027;-74
2023/08/26 05:41:07;;;;;;;31.10;12.63;;;;;;;24.09;63.28;99286.22;5122044;27;20534;-74
2023/08/26 05:43:32;;;;;;;39.13;14.18;;;;;;;24.01;64.01;99270.41;5110401;27;20313;-74
2023/08/26 05:45:58;;;;;;;18.77;13.75;;;;;;;24.13;63.80;99278.38;5114251;27;20084;-74
2023/08/26 05:48:23;;;;;;;17.67;13.27;;;;;;;24.30;63.47;99281.41;5118062;27;20033;-73
2023/08/26 05:50:49;;;;;;;15.18;12.20;;;;;;;24.32;62.56;99270.34;5099209;27;20030;-72
2023/08/26 05:53:14;;;;;;;18.70;13.75;;;;;;;24.37;62.90;99278.41;5123536;27;20039;-71
2023/08/26 05:55:44;;;;;;;20.35;13.00;;;;;;;24.42;62.29;99277.91;5126075;27;20510;-71
2023/08/26 05:58:10;;;;;;;17.92;14.23;;;;;;;24.45;62.43;99271.31;5102416;27;20395;-72
2023/08/26 06:00:35;;;;;;;19.92;15.35;;;;;;;24.68;61.82;99267.66;5107704;27;20213;-73
2023/08/26 06:03:01;;;;;;;24.35;16.45;;;;;;;24.86;61.52;99271.41;5115103;27;20022;-74
2023/08/26 06:05:27;;;;;;;20.92;14.00;;;;;;;24.87;60.19;99278.78;5113112;27;20027;-74
2023/08/26 06:07:53;;;;;;;20.42;14.23;;;;;;;24.91;60.09;99274.56;5127903;27;20027;-72
2023/08/26 06:10:18;;;;;;;15.93;12.60;;;;;;;25.10;59.26;99277.91;5128119;27;20025;-74
2023/08/26 06:12:44;;;;;;;14.82;10.38;;;;;;;25.30;57.45;99288.56;5102710;28;20047;-75
2023/08/26 06:15:10;;;;;;;13.93;10.50;;;;;;;25.17;58.07;99291.25;5116728;27;20024;-76
2023/08/26 06:17:36;;;;;;;16.20;10.75;;;;;;;25.32;57.52;99297.50;5096459;28;20126;-72
2023/08/26 06:20:05;;;;;;;21.33;11.15;;;;;;;25.47;57.30;99287.34;5096004;27;20035;-72
2023/08/26 06:22:31;;;;;;;16.95;11.35;;;;;;;25.55;55.66;99288.03;5116155;27;20122;-72
2023/08/26 06:24:57;;;;;;;15.15;9.63;;;;;;;25.69;55.74;99286.09;5127520;27;20564;-74
2023/08/26 06:27:23;;;;;;;15.85;9.52;;;;;;;25.88;54.80;99285.22;5141526;27;20023;-74
2023/08/26 06:29:57;;;;;;;19.02;10.15;;;;;;;25.89;54.45;99288.91;5092927;28;20023;-73
2023/08/26 06:32:23;;;;;;;19.90;10.48;;;;;;;26.11;53.46;99283.47;5111352;28;20019;-75
2023/08/26 06:34:49;;;;;;;14.15;9.60;;;;;;;26.22;52.88;99286.09;5111692;28;20075;-73
2023/08/26 06:37:15;;;;;;;11.52;9.23;;;;;;;26.37;52.50;99286.53;5111586;28;20023;-73
2023/08/26 06:39:40;;;;;;;22.80;8.25;;;;;;;26.54;51.64;99289.38;5093218;28;20427;-73
2023/08/26 06:42:06;;;;;;;12.05;8.65;;;;;;;26.52;50.33;99292.72;5093178;28;20483;-73
2023/08/26 06:44:32;;;;;;;15.32;9.20;;;;;;;26.60;50.09;99287.59;5111196;28;20023;-73
2023/08/26 06:46:58;;;;;;;17.73;9.70;;;;;;;26.76;50.46;99295.38;5093014;28;20027;-73
2023/08/26 06:49:24;;;;;;;21.55;9.98;;;;;;;27.09;50.06;99298.19;5110807;28;20034;-73
2023/08/26 06:51:49;;;;;;;10.63;8.05;;;;;;;26.89;48.82;99301.19;5131946;28;20105;-73
2023/08/26 06:54:15;;;;;;;23.92;9.90;;;;;;;27.09;48.04;99297.38;5097648;28;20513;-74
2023/08/26 06:56:40;;;;;;;12.82;8.50;;;;;;;27.33;47.17;99301.56;5111394;28;20580;-74
2023/08/26 06:59:05;;;;;;;10.80;7.47;;;;;;;27.37;46.84;99303.53;5111335;28;20521;-73
2023/08/26 07:01:33;;;;;;;11.98;7.78;;;;;;;27.36;47.03;99294.13;5093063;28;20023;-73
2023/08/26 07:04:04;;;;;;;16.58;8.95;;;;;;;27.42;47.30;99291.50;5111326;28;20031;-75
2023/08/26 07:06:29;;;;;;;16.15;9.25;;;;;;;27.28;48.11;99284.94;5092850;28;20020;-75
2023/08/26 07:08:56;;;;;;;12.10;8.18;;;;;;;27.78;46.33;99295.38;5111327;28;20024;-75
2023/08/26 07:11:22;;;;;;;13.93;9.63;;;;;;;28.06;45.51;99299.41;5101888;28;20031;-75
2023/08/26 07:13:47;;;;;;;11.65;7.05;;;;;;;28.28;45.28;99298.72;5110482;28;20016;-75
2023/08/26 07:16:13;;;;;;;21.27;8.30;;;;;;;28.43;43.92;99299.06;5111574;28;20016;-75
2023/08/26 07:18:38;;;;;;;11.27;7.28;;;;;;;28.61;44.67;99297.63;5111096;28;20395;-75
2023/08/26 07:21:03;;;;;;;12.20;7.60;;;;;;;28.89;44.18;99292.97;5092991;28;20110;-75
2023/08/26 07:23:29;;;;;;;9.13;7.60;;;;;;;29.05;43.92;99294.03;5112601;28;20031;-75
2023/08/26 07:25:55;;;;;;;14.73;7.60;;;;;;;29.17;43.13;99286.63;5131021;28;20023;-76
2023/08/26 07:28:20;;;;;;;13.77;8.55;;;;;;;28.53;43.34;99294.19;5111539;28;20559;-76
2023/08/26 07:30:45;;;;;;;11.68;7.53;;;;;;;28.50;43.83;99283.63;5131620;28;20026;-75
2023/08/26 07:33:11;;;;;;;11.57;7.95;;;;;;;28.71;45.07;99288.59;5113669;27;20057;-75
2023/08/26 07:35:36;;;;;;;10.85;7.32;;;;;;;28.25;44.46;99285.28;5135560;27;20026;-75
2023/08/26 07:38:05;;;;;;;8.38;7.50;;;;;;;28.62;44.07;99284.84;5135348;27;20418;-75
2023/08/26 07:40:30;;;;;;;11.90;8.38;;;;;;;28.63;43.53;99287.25;5135427;27;20045;-75
2023/08/26 07:42:56;;;;;;;21.80;14.95;;;;;;;28.92;42.78;99289.13;5116841;27;20027;-76
2023/08/26 07:45:21;;;;;;;20.15;13.68;;;;;;;29.15;42.47;99292.84;5116147;27;20031;-77
2023/08/26 07:47:51;;;;;;;12.25;8.88;;;;;;;29.51;41.89;99288.63;5097842;28;20024;-75
2023/08/26 07:50:16;;;;;;;11.38;8.95;;;;;;;29.80;42.11;99281.72;5127599;27;20034;-76
2023/08/26 07:52:42;;;;;;;16.08;7.55;;;;;;;29.96;40.70;99279.88;5128077;27;20023;-76
2023/08/26 07:55:08;;;;;;;13.93;7.82;;;;;;;29.84;40.74;99278.69;5130845;27;20076;-76
2023/08/26 07:57:33;;;;;;;9.40;8.10;;;;;;;30.10;40.72;99279.31;5134857;27;20039;-75
2023/08/26 07:59:59;;;;;;;12.60;8.10;;;;;;;30.24;39.71;99259.81;5130487;27;20034;-76
2023/08/26 08:02:27;;;;;;;11.07;8.45;;;;;;;30.50;40.34;99271.09;5122012;27;20024;-76
2023/08/26 08:04:53;;;;;;;8.85;7.95;;;;;;;30.51;39.30;99275.56;5097746;27;20019;-75
2023/08/26 08:07:18;;;;;;;12.82;7.82;;;;;;;30.78;40.23;99265.38;5116193;27;20030;-76
2023/08/26 08:09:43;;;;;;;18.95;8.77;;;;;;;31.01;40.41;99266.00;5128707;27;20456;-75
2023/08/26 08:12:09;;;;;;;16.33;8.05;;;;;;;31.02;38.93;99268.41;5119681;27;20019;-75
2023/08/26 08:14:34;;;;;;;12.32;7.78;;;;;;;31.11;39.23;99264.72;5113491;27;20016;-76
2023/08/26 08:17:00;;;;;;;12.48;8.00;;;;;;;31.15;38.46;99271.13;5116263;27;20491;-76
2023/08/26 08:19:25;;;;;;;14.98;9.60;;;;;;;31.13;38.80;99262.13;5096950;28;20027;-76
2023/08/26 08:21:51;;;;;;;14.35;7.95;;;;;;;31.21;38.39;99260.53;5123878;27;20023;-76
2023/08/26 08:24:17;;;;;;;15.02;8.50;;;;;;;31.15;38.52;99248.03;5096955;27;20023;-76
2023/08/26 08:26:43;;;;;;;11.60;7.85;;;;;;;31.23;39.00;99255.09;5106057;27;20030;-76
2023/08/26 08:29:12;;;;;;;17.27;9.35;;;;;;;31.44;38.79;99252.50;5115957;27;20022;-75
2023/08/26 08:31:37;;;;;;;10.75;7.78;;;;;;;31.51;38.63;99257.94;5116037;27;20030;-76
2023/08/26 08:34:03;;;;;;;9.38;7.15;;;;;;;31.64;38.14;99248.25;5122435;27;20502;-75
2023/08/26 08:36:29;;;;;;;17.63;8.02;;;;;;;31.85;37.40;99248.50;5113804;28;20380;-76
2023/08/26 08:38:56;;;;;;;16.08;8.52;;;;;;;31.90;36.69;99251.53;5120194;27;20026;-75
2023/08/26 08:41:22;;;;;;;8.82;7.93;;;;;;;31.92;36.57;99256.84;5134311;27;20057;-76
2023/08/26 08:43:52;;;;;;;17.35;10.38;;;;;;;32.04;36.81;99246.34;5124230;27;20388;-76
2023/08/26 08:46:19;;;;;;;10.85;8.90;;;;;;;32.13;37.47;99254.19;5115417;27;20038;-76
2023/08/26 08:48:44;;;;;;;13.65;8.02;;;;;;;32.26;36.84;99248.13;5113320;27;20018;-76
2023/08/26 08:51:11;;;;;;;11.57;8.10;;;;;;;32.42;36.47;99250.66;5115561;27;20026;-76
2023/08/26 08:53:44;;;;;;;13.25;7.68;;;;;;;32.71;36.26;99243.34;5114524;27;20031;-76
2023/08/26 08:56:11;;;;;;;8.13;7.35;;;;;;;32.72;34.58;99242.06;5133864;27;20073;-77
2023/08/26 08:58:37;;;;;;;10.25;8.15;;;;;;;31.99;35.55;99239.16;5133925;27;20023;-76
2023/08/26 09:01:04;;;;;;;12.32;8.65;;;;;;;31.72;36.09;99242.94;5132017;27;20398;-76
2023/08/26 09:03:30;;;;;;;10.18;8.40;;;;;;;31.91;36.11;99232.91;5133725;27;20506;-76
2023/08/26 09:05:55;;;;;;;15.43;8.73;;;;;;;31.84;36.17;99220.91;5113718;27;20015;-76
2023/08/26 09:08:23;;;;;;;10.30;9.13;;;;;;;32.08;35.59;99232.50;5133544;27;20518;-76
2023/08/26 09:10:49;;;;;;;13.25;8.05;;;;;;;32.58;35.59;99213.88;5115265;27;20030;-76
2023/08/26 09:13:14;;;;;;;8.60;7.80;;;;;;;32.77;34.89;99224.00;5115193;27;20407;-76
2023/08/26 09:15:40;;;;;;;13.02;9.45;;;;;;;32.49;35.95;99217.66;5133354;27;20368;-76
2023/08/26 09:18:13;;;;;;;12.52;8.27;;;;;;;33.05;36.15;99220.88;5113394;27;20403;-77
2023/08/26 09:20:39;;;;;;;11.82;7.88;;;;;;;33.19;35.59;99218.50;5093943;28;20028;-76
2023/08/26 09:23:07;;;;;;;8.88;7.97;;;;;;;33.26;35.43;99214.38;5112444;28;20023;-76
2023/08/26 09:25:34;;;;;;;11.48;7.40;;;;;;;33.43;35.68;99218.41;5111808;28;20034;-76
2023/08/26 09:28:00;;;;;;;10.43;8.13;;;;;;;33.63;34.38;99211.09;5093961;28;20030;-77
2023/08/26 09:30:25;;;;;;;13.02;7.82;;;;;;;33.86;33.35;99205.66;5094003;28;20024;-76
2023/08/26 09:32:55;;;;;;;12.07;8.73;;;;;;;34.01;34.80;99206.41;5112650;28;20496;-76
2023/08/26 09:35:21;;;;;;;9.60;7.95;;;;;;;34.20;33.98;99202.44;5113091;28;20023;-76
2023/08/26 09:37:55;;;;;;;10.93;7.88;;;;;;;34.02;33.79;99210.13;5112529;28;20515;-76
2023/08/26 09:40:20;;;;;;;13.98;7.63;;;;;;;34.20;33.14;99214.88;5093762;28;20069;-76
2023/08/26 09:42:46;;;;;;;13.02;8.55;;;;;;;34.33;32.33;99199.97;5094234;28;20027;-76
2023/08/26 09:45:16;;;;;;;10.88;9.07;;;;;;;34.32;32.71;99200.50;5112326;28;20031;-76
2023/08/26 09:47:42;;;;;;;11.85;9.02;;;;;;;34.52;32.69;99191.84;5093983;28;20055;-76
2023/08/26 09:50:08;;;;;;;9.57;8.45;;;;;;;34.53;34.25;99187.63;5112085;28;20446;-76
2023/08/26 09:52:47;;;;;;;14.20;8.82;;;;;;;34.73;33.33;99194.69;5093809;28;20088;-77
2023/08/26 09:55:13;;;;;;;9.60;8.60;;;;;;;34.71;33.47;99191.50;5111648;28;20023;-76
2023/08/26 09:57:39;;;;;;;10.90;8.10;;;;;;;34.66;33.11;99183.53;5093818;28;20120;-76
2023/08/26 10:00:11;;;;;;;12.77;8.48;;;;;;;34.72;33.25;99190.19;5111620;27;20449;-77
2023/08/26 10:03:03;;;;;;;9.15;8.30;;;;;;;34.89;32.58;99189.59;5112173;28;20483;-76
2023/08/26 10:05:35;;;;;;;12.65;8.02;;;;;;;34.76;32.47;99182.06;5111843;28;20019;-76
2023/08/26 10:08:06;;;;;;;12.57;8.77;;;;;;;34.92;31.76;99185.66;5119127;27;20023;-76
2023/08/26 10:10:39;;;;;;;18.48;9.52;;;;;;;34.75;31.21;99183.34;5132392;27;20031;-76
2023/08/26 10:13:06;;;;;;;17.13;9.48;;;;;;;35.03;32.00;99185.81;5114704;27;20031;-77
2023/08/26 10:15:33;;;;;;;14.90;8.70;;;;;;;35.14;31.53;99174.28;5095712;28;20028;-76
2023/08/26 10:18:11;;;;;;;7.97;7.13;;;;;;;35.18;31.94;99171.16;5115007;27;20031;-76
2023/08/26 10:20:38;;;;;;;12.02;8.07;;;;;;;35.26;31.53;99180.22;5132343;27;20023;-77
2023/08/26 10:23:04;;;;;;;13.05;10.02;;;;;;;35.23;32.10;99170.41;5113846;27;20031;-76
2023/08/26 10:25:31;;;;;;;11.80;9.05;;;;;;;35.53;31.34;99166.41;5094267;28;20423;-76
2023/08/26 10:27:58;;;;;;;15.00;8.38;;;;;;;35.42;32.01;99159.19;5111765;28;20487;-77
2023/08/26 10:30:23;;;;;;;16.33;8.30;;;;;;;35.38;31.87;99160.75;5111590;28;20034;-76
2023/08/26 10:33:03;;;;;;;11.00;8.07;;;;;;;35.39;30.85;99166.06;5111734;28;20028;-76
2023/08/26 10:35:29;;;;;;;12.82;8.50;;;;;;;35.59;30.95;99160.66;5111525;28;20027;-76
2023/08/26 10:38:12;;;;;;;10.38;8.30;;;;;;;35.57;30.72;99154.59;5111657;28;20431;-77
2023/08/26 10:40:37;;;;;;;9.23;7.70;;;;;;;35.52;30.78;99162.69;5128273;27;20034;-77
2023/08/26 10:43:05;;;;;;;11.43;8.18;;;;;;;35.42;30.93;99159.19;5132618;27;20403;-76
2023/08/26 10:45:31;;;;;;;16.10;8.75;;;;;;;35.52;29.84;99156.09;5131897;28;20479;-76
2023/08/26 10:47:56;;;;;;;11.05;7.20;;;;;;;35.88;28.81;99158.72;5131986;28;20080;-76
2023/08/26 10:50:27;;;;;;;8.20;6.85;;;;;;;35.84;29.45;99147.38;5131799;28;20058;-76
2023/08/26 10:52:54;;;;;;;9.45;7.30;;;;;;;35.54;30.18;99141.88;5132018;28;20023;-77
2023/08/26 10:55:22;;;;;;;12.82;7.70;;;;;;;35.30;30.58;99140.06;5112091;28;20411;-76
2023/08/26 10:58:13;;;;;;;8.30;7.18;;;;;;;35.63;31.13;99135.06;5131702;28;20431;-76
2023/08/26 11:00:44;;;;;;;9.60;7.45;;;;;;;35.68;30.19;99143.81;5131820;28;20106;-76
2023/08/26 11:03:11;;;;;;;12.95;6.75;;;;;;;35.72;30.59;99136.94;5131860;28;20030;-76
2023/08/26 11:05:39;;;;;;;12.50;7.40;;;;;;;35.84;30.00;99132.81;5131677;28;20019;-76
2023/08/26 11:08:06;;;;;;;9.48;7.68;;;;;;;36.04;30.50;99126.03;5133933;27;20502;-76
2023/08/26 11:10:33;;;;;;;10.23;7.43;;;;;;;36.05;30.60;99130.56;5136401;27;20037;-72
2023/08/26 11:12:59;;;;;;;8.43;7.50;;;;;;;36.11;29.65;99128.47;5135807;27;20023;-71
2023/08/26 11:15:31;;;;;;;19.60;8.63;;;;;;;36.21;30.24;99119.50;5134360;27;20571;-71
2023/08/26 11:17:57;;;;;;;13.10;7.93;;;;;;;36.59;29.38;99122.31;5117026;27;20023;-72
2023/08/26 11:20:23;;;;;;;11.75;8.85;;;;;;;36.37;29.75;99115.06;5117396;27;20034;-69
2023/08/26 11:22:50;;;;;;;12.10;8.27;;;;;;;36.48;29.28;99111.41;5135530;27;20023;-74
2023/08/26 11:25:16;;;;;;;13.93;8.15;;;;;;;36.61;29.53;99114.63;5114806;27;20077;-71
2023/08/26 11:27:42;;;;;;;12.63;8.80;;;;;;;36.89;28.92;99116.00;5114367;27;20114;-71
2023/08/26 11:30:09;;;;;;;15.05;9.13;;;;;;;36.70;28.85;99110.69;5110562;27;20550;-69
2023/08/26 11:32:36;;;;;;;14.45;9.10;;;;;;;36.59;28.83;99111.44;5124072;27;20380;-69
2023/08/26 11:35:03;;;;;;;19.25;8.65;;;;;;;36.78;29.18;99105.13;5113625;27;20842;-70
2023/08/26 11:37:36;;;;;;;9.48;8.32;;;;;;;36.66;29.04;99104.31;5123828;27;20065;-70